createdAt,value
2023-01-29T00:00:33.362Z,98.96
2023-01-29T00:03:03.790Z,99.02
2023-01-29T00:05:33.886Z,99.50
2023-01-29T00:08:04.313Z,99.29
2023-01-29T00:10:33.799Z,98.62
2023-01-29T00:13:03.483Z,99.26
2023-01-29T00:15:34.168Z,99.15
2023-01-29T00:18:04.210Z,99.05
2023-01-29T00:20:34.980Z,98.63
2023-01-29T00:23:05.008Z,98.13
2023-01-29T00:25:35.044Z,98.78
2023-01-29T00:28:05.184Z,99.57
2023-01-29T00:30:34.761Z,99.23
2023-01-29T00:33:05.259Z,99.99
2023-01-29T00:35:36.018Z,99.65
2023-01-29T00:38:06.075Z,99.41
2023-01-29T00:40:58.290Z,99.62
2023-01-29T00:43:46.751Z,99.76
2023-01-29T00:46:16.835Z,99.19
2023-01-29T00:48:46.411Z,98.41
2023-01-29T00:51:16.064Z,98.47
2023-01-29T00:53:46.181Z,99.29
2023-01-29T00:56:15.706Z,98.67
2023-01-29T00:58:45.419Z,99.15
2023-01-29T01:01:15.074Z,97.95
2023-01-29T01:03:44.786Z,99.34
2023-01-29T01:06:14.647Z,99.84
2023-01-29T01:09:02.487Z,99.99
2023-01-29T01:11:32.533Z,99.99
2023-01-29T01:14:03.315Z,99.99
2023-01-29T01:16:34.112Z,99.99
2023-01-29T01:19:05.912Z,99.99
2023-01-29T01:21:36.031Z,99.99
2023-01-29T01:24:07.084Z,99.25
2023-01-29T01:26:37.290Z,99.99
2023-01-29T01:29:07.314Z,99.99
2023-01-29T01:31:37.494Z,99.99
2023-01-29T01:34:07.759Z,99.99
2023-01-29T01:36:37.368Z,99.16
2023-01-29T01:39:07.167Z,99.99
2023-01-29T01:41:37.258Z,99.99
2023-01-29T01:44:07.531Z,99.48
2023-01-29T01:46:39.220Z,99.99
2023-01-29T01:49:18.361Z,99.99
2023-01-29T01:51:53.258Z,99.99
2023-01-29T01:54:28.458Z,99.99
2023-01-29T01:57:17.186Z,99.99
2023-01-29T02:00:00.401Z,99.99
2023-01-29T02:02:48.055Z,99.48
2023-01-29T02:05:35.781Z,99.99
2023-01-29T02:08:24.310Z,99.99
2023-01-29T02:10:55.363Z,99.99
2023-01-29T02:13:25.871Z,99.99
2023-01-29T02:15:55.966Z,99.99
2023-01-29T02:18:25.898Z,99.27
2023-01-29T02:21:26.382Z,99.56
2023-01-29T02:24:33.795Z,99.99
2023-01-29T02:27:15.269Z,99.85
2023-01-29T02:29:55.860Z,99.83
2023-01-29T02:32:55.540Z,99.83
2023-01-29T02:35:35.974Z,99.99
2023-01-29T02:38:30.460Z,99.92
2023-01-29T02:41:15.331Z,99.99
2023-01-29T02:44:31.424Z,99.93
2023-01-29T02:47:26.161Z,99.93
2023-01-29T02:50:01.323Z,99.99
2023-01-29T02:52:52.022Z,99.75
2023-01-29T02:55:30.879Z,99.70
2023-01-29T02:58:25.986Z,99.99
2023-01-29T03:01:00.288Z,99.86
2023-01-29T03:03:40.556Z,99.59
2023-01-29T03:06:31.776Z,99.79
2023-01-29T03:09:06.354Z,99.80
2023-01-29T03:11:42.781Z,99.99
2023-01-29T03:14:55.688Z,99.99
2023-01-29T03:17:29.255Z,99.93
2023-01-29T03:20:00.186Z,99.99
2023-01-29T03:22:31.385Z,99.99
2023-01-29T03:25:22.168Z,99.99
2023-01-29T03:28:19.450Z,99.99
2023-01-29T03:31:15.217Z,99.87
2023-01-29T03:34:19.334Z,99.61
2023-01-29T03:36:57.002Z,99.99
2023-01-29T03:39:30.545Z,99.51
2023-01-29T03:42:20.894Z,99.78
2023-01-29T03:45:11.940Z,99.99
2023-01-29T03:48:08.158Z,99.99
2023-01-29T03:50:50.494Z,99.99
2023-01-29T03:53:31.702Z,99.99
2023-01-29T03:56:04.831Z,99.99
2023-01-29T03:58:49.994Z,99.95
2023-01-29T04:01:25.828Z,99.99
2023-01-29T04:04:07.142Z,99.91
2023-01-29T04:06:42.245Z,99.99
2023-01-29T04:09:17.839Z,99.99
2023-01-29T04:11:57.460Z,99.99
2023-01-29T04:14:27.677Z,99.99
2023-01-29T04:17:01.938Z,99.99
2023-01-29T04:19:41.757Z,99.99
2023-01-29T04:22:25.976Z,99.99
2023-01-29T04:24:56.573Z,99.99
2023-01-29T04:27:59.827Z,99.99
2023-01-29T04:30:43.320Z,99.99
2023-01-29T04:33:23.165Z,99.99
2023-01-29T04:36:15.608Z,99.99
2023-01-29T04:39:07.016Z,99.99
2023-01-29T04:42:15.339Z,99.99
2023-01-29T04:45:26.029Z,99.99
2023-01-29T04:48:10.969Z,99.99
2023-01-29T04:50:59.917Z,99.41
2023-01-29T04:53:57.531Z,99.99
2023-01-29T04:56:41.176Z,99.99
2023-01-29T04:59:15.980Z,99.99
2023-01-29T05:01:46.818Z,99.99
2023-01-29T05:04:20.700Z,99.99
2023-01-29T05:06:52.360Z,99.99
2023-01-29T05:09:23.352Z,99.99
2023-01-29T05:11:53.943Z,99.99
2023-01-29T05:14:26.887Z,99.99
2023-01-29T05:16:59.504Z,99.99
2023-01-29T05:19:29.623Z,99.99
2023-01-29T05:22:00.169Z,99.99
2023-01-29T05:24:30.552Z,99.99
2023-01-29T05:27:18.981Z,99.99
2023-01-29T05:29:50.110Z,99.99
2023-01-29T05:32:20.135Z,99.99
2023-01-29T05:34:50.133Z,99.99
2023-01-29T05:37:20.160Z,99.99
2023-01-29T05:39:50.270Z,99.99
2023-01-29T05:42:19.815Z,99.99
2023-01-29T05:44:49.622Z,99.99
2023-01-29T05:47:22.925Z,99.99
2023-01-29T05:49:52.774Z,99.99
2023-01-29T05:52:22.567Z,99.99
2023-01-29T05:54:52.617Z,99.99
2023-01-29T05:57:23.292Z,99.99
2023-01-29T05:59:53.353Z,99.99
2023-01-29T06:02:23.656Z,99.88
2023-01-29T06:04:54.194Z,99.92
2023-01-29T06:07:24.202Z,99.99
2023-01-29T06:09:54.249Z,99.99
2023-01-29T06:12:24.651Z,99.99
2023-01-29T06:14:54.710Z,99.99
2023-01-29T06:17:24.591Z,99.99
2023-01-29T06:19:54.204Z,99.99
2023-01-29T06:22:23.908Z,99.99
2023-01-29T06:24:53.942Z,99.99
2023-01-29T06:27:24.025Z,99.99
2023-01-29T06:29:54.149Z,99.99
2023-01-29T06:32:24.161Z,99.99
2023-01-29T06:34:54.395Z,99.99
2023-01-29T06:37:23.900Z,99.87
2023-01-29T06:39:54.686Z,99.99
2023-01-29T06:42:28.895Z,99.99
2023-01-29T06:44:59.412Z,99.99
2023-01-29T06:47:29.709Z,99.99
2023-01-29T06:49:59.994Z,99.99
2023-01-29T06:52:30.812Z,99.99
2023-01-29T06:55:00.720Z,99.99
2023-01-29T06:57:33.318Z,99.99
2023-01-29T07:00:03.580Z,99.99
2023-01-29T07:02:33.455Z,99.99
2023-01-29T07:05:03.480Z,99.99
2023-01-29T07:07:33.482Z,99.99
2023-01-29T07:10:03.504Z,99.99
2023-01-29T07:12:33.509Z,99.99
2023-01-29T07:15:03.795Z,99.99
2023-01-29T07:17:33.784Z,99.99
2023-01-29T07:20:03.649Z,99.99
2023-01-29T07:22:34.206Z,99.99
2023-01-29T07:25:04.319Z,99.99
2023-01-29T07:27:33.952Z,99.99
2023-01-29T07:30:03.982Z,99.99
2023-01-29T07:32:34.168Z,99.99
2023-01-29T07:35:03.648Z,99.99
2023-01-29T07:37:33.321Z,99.99
2023-01-29T07:40:06.082Z,99.99
2023-01-29T07:42:36.548Z,99.99
2023-01-29T07:45:08.030Z,99.99
2023-01-29T07:47:38.404Z,99.99
2023-01-29T07:50:08.946Z,99.99
2023-01-29T07:52:39.022Z,99.99
2023-01-29T07:55:09.419Z,99.99
2023-01-29T07:57:39.687Z,99.99
2023-01-29T08:00:11.390Z,99.99
2023-01-29T08:02:44.417Z,99.99
2023-01-29T08:05:14.487Z,99.99
2023-01-29T08:07:49.232Z,99.99
2023-01-29T08:10:24.339Z,99.99
2023-01-29T08:12:57.766Z,99.99
2023-01-29T08:15:28.507Z,99.99
2023-01-29T08:17:59.008Z,99.99
2023-01-29T08:20:29.276Z,99.99
2023-01-29T08:23:04.213Z,99.99
2023-01-29T08:25:35.328Z,99.99
2023-01-29T08:28:06.595Z,99.99
2023-01-29T08:30:37.011Z,99.99
2023-01-29T08:33:07.123Z,99.99
2023-01-29T08:35:37.327Z,99.99
2023-01-29T08:38:07.713Z,99.99
2023-01-29T08:40:37.874Z,99.99
2023-01-29T08:43:10.026Z,99.99
2023-01-29T08:45:43.149Z,99.99
2023-01-29T08:48:13.733Z,99.99
2023-01-29T08:50:43.806Z,99.99
2023-01-29T08:53:14.065Z,99.99
2023-01-29T08:55:44.539Z,99.99
2023-01-29T08:58:14.587Z,99.99
2023-01-29T09:00:44.416Z,99.99
2023-01-29T09:03:14.784Z,99.99
2023-01-29T09:05:44.947Z,99.99
2023-01-29T09:08:14.551Z,99.99
2023-01-29T09:10:44.321Z,99.99
2023-01-29T09:13:13.899Z,99.99
2023-01-29T09:15:43.788Z,99.99
2023-01-29T09:18:13.690Z,99.99
2023-01-29T09:20:43.636Z,99.99
2023-01-29T09:23:13.623Z,99.99
2023-01-29T09:25:45.292Z,99.99
2023-01-29T09:28:34.217Z,99.94
2023-01-29T09:31:05.085Z,99.99
2023-01-29T09:33:35.228Z,99.99
2023-01-29T09:36:05.971Z,99.71
2023-01-29T09:38:36.063Z,99.90
2023-01-29T09:41:08.637Z,99.51
2023-01-29T09:44:01.436Z,99.99
2023-01-29T09:46:49.027Z,99.99
2023-01-29T09:49:39.032Z,99.90
2023-01-29T09:52:24.787Z,99.86
2023-01-29T09:54:57.690Z,99.49
2023-01-29T09:57:48.113Z,99.77
2023-01-29T10:00:40.718Z,99.60
2023-01-29T10:03:16.994Z,99.33
2023-01-29T10:06:23.546Z,99.51
2023-01-29T10:09:28.743Z,99.77
2023-01-29T10:12:01.717Z,99.60
2023-01-29T10:14:54.543Z,99.58
2023-01-29T10:17:54.059Z,98.93
2023-01-29T10:20:55.795Z,98.78
2023-01-29T10:23:34.542Z,99.26
2023-01-29T10:26:05.200Z,99.27
2023-01-29T10:28:44.429Z,98.73
2023-01-29T10:31:26.651Z,99.30
2023-01-29T10:34:02.956Z,99.94
2023-01-29T10:36:59.115Z,98.24
2023-01-29T10:39:32.074Z,99.21
2023-01-29T10:42:23.490Z,99.03
2023-01-29T10:45:26.247Z,98.64
2023-01-29T10:48:36.077Z,98.95
2023-01-29T10:51:16.874Z,98.42
2023-01-29T10:54:09.534Z,98.08
2023-01-29T10:56:45.009Z,97.95
2023-01-29T10:59:32.573Z,96.65
2023-01-29T11:02:04.451Z,96.36
2023-01-29T11:04:35.708Z,95.63
2023-01-29T11:07:06.487Z,95.71
2023-01-29T11:10:05.058Z,95.39
2023-01-29T11:12:35.900Z,95.63
2023-01-29T11:15:08.813Z,95.40
2023-01-29T11:17:38.918Z,94.95
2023-01-29T11:20:26.819Z,94.88
2023-01-29T11:23:00.527Z,95.50
2023-01-29T11:25:33.923Z,96.34
2023-01-29T11:28:06.383Z,96.60
2023-01-29T11:30:41.067Z,95.95
2023-01-29T11:33:26.255Z,95.44
2023-01-29T11:35:58.734Z,95.44
2023-01-29T11:38:30.949Z,94.36
2023-01-29T11:41:15.591Z,95.12
2023-01-29T11:43:45.606Z,95.29
2023-01-29T11:46:16.873Z,94.99
2023-01-29T11:48:53.581Z,94.24
2023-01-29T11:51:27.580Z,94.61
2023-01-29T11:54:03.699Z,94.16
2023-01-29T11:56:44.282Z,93.53
2023-01-29T11:59:41.646Z,93.69
2023-01-29T12:02:29.315Z,93.78
2023-01-29T12:05:04.274Z,92.94
2023-01-29T12:07:35.924Z,93.09
2023-01-29T12:10:06.244Z,93.13
2023-01-29T12:12:44.389Z,94.39
2023-01-29T12:15:18.824Z,94.05
2023-01-29T12:17:59.960Z,94.82
2023-01-29T12:20:38.133Z,94.06
2023-01-29T12:23:42.712Z,93.96
2023-01-29T12:26:19.717Z,93.27
2023-01-29T12:28:59.466Z,93.26
2023-01-29T12:31:52.798Z,92.19
2023-01-29T12:34:35.908Z,90.73
2023-01-29T12:37:08.656Z,90.60
2023-01-29T12:39:39.137Z,91.41
2023-01-29T12:42:21.988Z,90.60
2023-01-29T12:45:16.654Z,90.59
2023-01-29T12:47:55.465Z,88.94
2023-01-29T12:50:37.229Z,91.68
2023-01-29T12:53:15.849Z,92.32
2023-01-29T12:55:49.939Z,92.12
2023-01-29T12:58:29.989Z,92.66
2023-01-29T13:01:08.147Z,91.92
2023-01-29T13:03:56.984Z,92.75
2023-01-29T13:06:43.784Z,92.25
2023-01-29T13:09:24.762Z,90.94
2023-01-29T13:12:01.204Z,89.01
2023-01-29T13:14:56.456Z,89.95
2023-01-29T13:17:39.830Z,90.47
2023-01-29T13:20:29.981Z,89.92
2023-01-29T13:23:22.877Z,91.04
2023-01-29T13:25:56.046Z,91.33
2023-01-29T13:28:28.832Z,91.53
2023-01-29T13:31:21.313Z,92.40
2023-01-29T13:34:11.619Z,90.39
2023-01-29T13:36:56.604Z,89.79
2023-01-29T13:39:31.382Z,86.99
2023-01-29T13:42:04.233Z,86.20
2023-01-29T13:44:41.061Z,86.14
2023-01-29T13:47:13.420Z,85.18
2023-01-29T13:49:55.614Z,84.86
2023-01-29T13:52:46.485Z,85.44
2023-01-29T13:55:16.791Z,87.29
2023-01-29T13:57:49.916Z,87.10
2023-01-29T14:00:22.824Z,87.37
2023-01-29T14:03:01.516Z,89.15
2023-01-29T14:05:31.747Z,88.95
2023-01-29T14:08:25.671Z,85.95
2023-01-29T14:11:22.695Z,86.12
2023-01-29T14:13:53.470Z,84.67
2023-01-29T14:16:24.485Z,84.56
2023-01-29T14:19:04.582Z,84.55
2023-01-29T14:21:37.108Z,82.36
2023-01-29T14:24:15.370Z,82.39
2023-01-29T14:26:48.794Z,80.04
2023-01-29T14:29:32.649Z,82.45
2023-01-29T14:32:10.335Z,83.45
2023-01-29T14:34:51.165Z,84.30
2023-01-29T14:37:30.643Z,83.51
2023-01-29T14:40:21.022Z,85.34
2023-01-29T14:43:08.591Z,82.45
2023-01-29T14:45:42.906Z,82.04
2023-01-29T14:48:12.876Z,82.26
2023-01-29T14:50:48.955Z,79.11
2023-01-29T14:53:44.801Z,77.32
2023-01-29T14:56:17.832Z,76.60
2023-01-29T14:59:00.180Z,78.80
2023-01-29T15:01:38.515Z,78.26
2023-01-29T15:04:22.001Z,77.81
2023-01-29T15:07:12.066Z,74.16
2023-01-29T15:10:21.954Z,76.57
2023-01-29T15:13:16.803Z,74.78
2023-01-29T15:15:58.631Z,76.10
2023-01-29T15:18:44.944Z,76.10
2023-01-29T15:21:17.917Z,74.05
2023-01-29T15:23:51.708Z,71.86
2023-01-29T15:26:26.987Z,72.70
2023-01-29T15:29:04.169Z,70.88
2023-01-29T15:31:36.708Z,71.41
2023-01-29T15:34:09.099Z,72.12
2023-01-29T15:36:41.020Z,71.41
2023-01-29T15:39:13.964Z,73.74
2023-01-29T15:41:44.993Z,73.73
2023-01-29T15:44:20.630Z,73.97
2023-01-29T15:46:57.809Z,70.99
2023-01-29T15:49:39.532Z,72.06
2023-01-29T15:52:36.355Z,72.13
2023-01-29T15:55:08.377Z,71.84
2023-01-29T15:57:42.490Z,68.84
2023-01-29T16:00:25.062Z,69.44
2023-01-29T16:02:56.041Z,68.87
2023-01-29T16:05:31.119Z,69.57
2023-01-29T16:08:02.213Z,68.62
2023-01-29T16:10:34.907Z,69.83
2023-01-29T16:13:05.511Z,71.19
2023-01-29T16:15:41.386Z,72.70
2023-01-29T16:18:37.498Z,72.87
2023-01-29T16:21:18.848Z,73.05
2023-01-29T16:23:57.678Z,72.83
2023-01-29T16:26:33.298Z,73.51
2023-01-29T16:29:16.321Z,74.12
2023-01-29T16:31:48.587Z,73.20
2023-01-29T16:34:29.159Z,74.15
2023-01-29T16:37:00.263Z,73.02
2023-01-29T16:39:38.354Z,74.07
2023-01-29T16:42:18.236Z,74.31
2023-01-29T16:45:07.493Z,72.78
2023-01-29T16:47:45.421Z,72.62
2023-01-29T16:50:40.646Z,74.37
2023-01-29T16:53:19.021Z,71.55
2023-01-29T16:55:50.940Z,71.09
2023-01-29T16:58:29.393Z,72.32
2023-01-29T17:01:17.125Z,74.35
2023-01-29T17:04:12.271Z,73.35
2023-01-29T17:06:45.770Z,71.37
2023-01-29T17:09:30.128Z,73.12
2023-01-29T17:12:09.737Z,73.73
2023-01-29T17:14:43.100Z,73.25
2023-01-29T17:17:20.688Z,74.09
2023-01-29T17:19:50.633Z,74.61
2023-01-29T17:22:20.427Z,74.53
2023-01-29T17:24:52.608Z,74.93
2023-01-29T17:27:24.511Z,75.20
2023-01-29T17:29:54.644Z,72.83
2023-01-29T17:32:25.895Z,71.83
2023-01-29T17:35:15.946Z,71.24
2023-01-29T17:37:46.318Z,70.15
2023-01-29T17:40:42.268Z,71.51
2023-01-29T17:43:15.288Z,71.41
2023-01-29T17:45:45.356Z,71.85
2023-01-29T17:48:26.759Z,72.66
2023-01-29T17:50:59.029Z,71.37
2023-01-29T17:53:44.215Z,70.70
2023-01-29T17:56:28.596Z,71.49
2023-01-29T17:58:58.716Z,70.28
2023-01-29T18:01:28.059Z,71.01
2023-01-29T18:03:58.048Z,70.44
2023-01-29T18:06:30.635Z,71.11
2023-01-29T18:09:00.691Z,71.42
2023-01-29T18:11:30.611Z,71.82
2023-01-29T18:14:04.554Z,69.91
2023-01-29T18:16:45.590Z,70.35
2023-01-29T18:19:24.320Z,69.57
2023-01-29T18:21:55.313Z,68.19
2023-01-29T18:24:27.556Z,67.19
2023-01-29T18:26:57.618Z,68.17
2023-01-29T18:29:31.149Z,70.48
2023-01-29T18:32:01.395Z,67.47
2023-01-29T18:34:31.394Z,67.81
2023-01-29T18:37:01.899Z,65.78
2023-01-29T18:39:31.995Z,66.02
2023-01-29T18:42:01.318Z,66.56
2023-01-29T18:44:31.232Z,62.98
2023-01-29T18:47:03.104Z,63.96
2023-01-29T18:49:33.960Z,64.91
2023-01-29T18:52:04.085Z,62.44
2023-01-29T18:54:34.147Z,62.67
2023-01-29T18:57:14.612Z,63.98
2023-01-29T18:59:54.157Z,64.54
2023-01-29T19:02:23.771Z,67.21
2023-01-29T19:04:53.482Z,63.61
2023-01-29T19:07:25.447Z,62.68
2023-01-29T19:09:56.010Z,64.29
2023-01-29T19:12:26.093Z,61.21
2023-01-29T19:14:55.399Z,65.35
2023-01-29T19:17:27.972Z,59.54
2023-01-29T19:20:03.100Z,61.77
2023-01-29T19:22:33.943Z,62.89
2023-01-29T19:25:03.990Z,63.94
2023-01-29T19:27:34.125Z,63.82
2023-01-29T19:30:06.671Z,62.98
2023-01-29T19:32:37.129Z,61.70
2023-01-29T19:35:07.479Z,63.39
2023-01-29T19:37:37.545Z,62.89
2023-01-29T19:40:09.277Z,60.80
2023-01-29T19:42:39.599Z,61.78
2023-01-29T19:45:10.995Z,61.25
2023-01-29T19:47:42.937Z,61.40
2023-01-29T19:50:13.711Z,62.05
2023-01-29T19:52:51.900Z,61.41
2023-01-29T19:55:23.460Z,61.90
2023-01-29T19:57:58.226Z,62.06
2023-01-29T20:00:28.364Z,61.51
2023-01-29T20:02:58.383Z,61.65
2023-01-29T20:05:28.385Z,62.09
2023-01-29T20:07:59.150Z,61.04
2023-01-29T20:10:29.135Z,64.15
2023-01-29T20:12:59.371Z,61.61
2023-01-29T20:15:29.362Z,62.26
2023-01-29T20:18:00.158Z,63.69
2023-01-29T20:20:31.141Z,61.58
2023-01-29T20:23:02.999Z,62.56
2023-01-29T20:25:33.078Z,63.29
2023-01-29T20:28:03.774Z,61.79
2023-01-29T20:30:36.156Z,62.15
2023-01-29T20:33:07.326Z,62.59
2023-01-29T20:35:38.948Z,62.15
2023-01-29T20:38:11.171Z,63.69
2023-01-29T20:40:42.670Z,64.70
2023-01-29T20:43:13.229Z,64.01
2023-01-29T20:45:43.730Z,66.23
2023-01-29T20:48:13.916Z,65.15
2023-01-29T20:50:44.085Z,66.92
2023-01-29T20:53:14.388Z,65.90
2023-01-29T20:55:44.416Z,65.46
2023-01-29T20:58:14.747Z,65.57
2023-01-29T21:00:45.569Z,65.60
2023-01-29T21:03:15.513Z,65.03
2023-01-29T21:05:45.317Z,64.91
2023-01-29T21:08:15.503Z,64.82
2023-01-29T21:10:46.514Z,65.23
2023-01-29T21:13:16.584Z,66.01
2023-01-29T21:15:46.732Z,64.98
2023-01-29T21:18:16.668Z,64.46
2023-01-29T21:20:46.129Z,65.51
2023-01-29T21:23:15.874Z,65.59
2023-01-29T21:25:46.424Z,66.14
2023-01-29T21:28:17.207Z,65.15
2023-01-29T21:30:47.651Z,66.31
2023-01-29T21:33:17.798Z,66.12
2023-01-29T21:35:47.653Z,67.76
2023-01-29T21:38:17.644Z,68.60
2023-01-29T21:40:47.417Z,67.97
2023-01-29T21:43:17.290Z,69.85
2023-01-29T21:45:47.281Z,69.83
2023-01-29T21:48:17.318Z,70.75
2023-01-29T21:50:49.984Z,71.41
2023-01-29T21:53:20.743Z,70.43
2023-01-29T21:55:50.877Z,70.59
2023-01-29T21:58:21.636Z,71.58
2023-01-29T22:00:51.834Z,71.27
2023-01-29T22:03:21.170Z,71.73
2023-01-29T22:05:51.372Z,72.14
2023-01-29T22:08:21.952Z,71.87
2023-01-29T22:10:52.073Z,72.66
2023-01-29T22:13:22.169Z,72.52
2023-01-29T22:15:56.428Z,73.57
2023-01-29T22:18:26.602Z,73.08
2023-01-29T22:20:56.522Z,73.19
2023-01-29T22:23:27.109Z,73.89
2023-01-29T22:26:04.620Z,74.06
2023-01-29T22:28:36.575Z,74.45
2023-01-29T22:31:07.407Z,75.50
2023-01-29T22:33:37.615Z,76.14
2023-01-29T22:36:08.713Z,76.55
2023-01-29T22:38:38.669Z,76.30
2023-01-29T22:41:08.469Z,77.25
2023-01-29T22:43:38.787Z,77.09
2023-01-29T22:46:10.134Z,77.62
2023-01-29T22:48:40.165Z,77.88
2023-01-29T22:51:12.931Z,77.80
2023-01-29T22:53:45.817Z,78.54
2023-01-29T22:56:16.294Z,79.08
2023-01-29T22:58:46.622Z,79.25
2023-01-29T23:01:23.329Z,80.90
2023-01-29T23:03:53.768Z,80.19
2023-01-29T23:06:24.114Z,80.44
2023-01-29T23:08:54.465Z,81.63
2023-01-29T23:11:25.229Z,82.02
2023-01-29T23:13:56.377Z,82.74
2023-01-29T23:16:28.177Z,81.74
2023-01-29T23:18:58.800Z,82.80
2023-01-29T23:21:29.716Z,83.61
2023-01-29T23:24:00.767Z,83.25
2023-01-29T23:26:49.514Z,84.42
2023-01-29T23:29:19.547Z,83.45
2023-01-29T23:31:49.158Z,82.80
2023-01-29T23:34:18.907Z,84.77
2023-01-29T23:36:48.546Z,83.45
2023-01-29T23:39:18.501Z,85.05
2023-01-29T23:41:48.502Z,85.26
2023-01-29T23:44:18.111Z,84.28
2023-01-29T23:46:48.382Z,86.33
2023-01-29T23:49:18.649Z,86.23
2023-01-29T23:51:52.425Z,86.19
2023-01-29T23:54:22.464Z,86.21
2023-01-29T23:56:51.989Z,85.00
2023-01-29T23:59:22.117Z,86.55
